sensor_id;sensor_type;location;lat;lon;timestamp;pressure;altitude;pressure_sealevel;temperature;humidity
10921;BME280;5513;50.580;8.818;2023-01-31T00:00:24;99741.69;;;4.87;100.00
10921;BME280;5513;50.580;8.818;2023-01-31T00:02:53;99748.75;;;4.85;100.00
10921;BME280;5513;50.580;8.818;2023-01-31T00:05:21;99748.97;;;4.78;100.00
10921;BME280;5513;50.580;8.818;2023-01-31T00:07:50;99749.94;;;4.75;100.00
10921;BME280;5513;50.580;8.818;2023-01-31T00:10:19;99757.03;;;4.72;100.00
10921;BME280;5513;50.580;8.818;2023-01-31T00:12:47;99753.44;;;4.76;100.00
10921;BME280;5513;50.580;8.818;2023-01-31T00:15:17;99749.78;;;4.80;100.00
10921;BME280;5513;50.580;8.818;2023-01-31T00:17:46;99745.72;;;4.70;100.00
10921;BME280;5513;50.580;8.818;2023-01-31T00:20:18;99753.28;;;4.80;100.00
10921;BME280;5513;50.580;8.818;2023-01-31T00:22:49;99750.13;;;4.69;100.00
10921;BME280;5513;50.580;8.818;2023-01-31T00:25:18;99751.56;;;4.79;100.00
10921;BME280;5513;50.580;8.818;2023-01-31T00:27:47;99749.72;;;4.81;100.00
10921;BME280;5513;50.580;8.818;2023-01-31T00:30:17;99745.16;;;4.88;100.00
10921;BME280;5513;50.580;8.818;2023-01-31T00:32:46;99752.69;;;4.71;100.00
10921;BME280;5513;50.580;8.818;2023-01-31T00:35:15;99759.06;;;4.62;100.00
10921;BME280;5513;50.580;8.818;2023-01-31T00:37:43;99759.81;;;4.67;100.00
10921;BME280;5513;50.580;8.818;2023-01-31T00:40:13;99761.41;;;4.71;100.00
10921;BME280;5513;50.580;8.818;2023-01-31T00:42:42;99757.09;;;4.70;100.00
10921;BME280;5513;50.580;8.818;2023-01-31T00:45:11;99758.09;;;4.66;100.00
10921;BME280;5513;50.580;8.818;2023-01-31T00:47:41;99755.31;;;4.71;100.00
10921;BME280;5513;50.580;8.818;2023-01-31T00:50:13;99761.56;;;4.67;100.00
10921;BME280;5513;50.580;8.818;2023-01-31T00:52:42;99758.09;;;4.66;100.00
10921;BME280;5513;50.580;8.818;2023-01-31T00:55:10;99763.41;;;4.63;100.00
10921;BME280;5513;50.580;8.818;2023-01-31T00:57:39;99766.28;;;4.55;100.00
10921;BME280;5513;50.580;8.818;2023-01-31T01:00:08;99760.19;;;4.55;100.00
10921;BME280;5513;50.580;8.818;2023-01-31T01:02:38;99767.81;;;4.63;100.00
10921;BME280;5513;50.580;8.818;2023-01-31T01:05:08;99772.25;;;4.60;100.00
10921;BME280;5513;50.580;8.818;2023-01-31T01:07:36;99780.75;;;4.69;100.00
10921;BME280;5513;50.580;8.818;2023-01-31T01:10:06;99787.44;;;4.49;100.00
10921;BME280;5513;50.580;8.818;2023-01-31T01:12:34;99787.97;;;4.60;100.00
10921;BME280;5513;50.580;8.818;2023-01-31T01:15:04;99786.31;;;4.58;100.00
10921;BME280;5513;50.580;8.818;2023-01-31T01:17:32;99779.84;;;4.70;100.00
10921;BME280;5513;50.580;8.818;2023-01-31T01:20:04;99784.38;;;4.65;100.00
10921;BME280;5513;50.580;8.818;2023-01-31T01:22:34;99787.81;;;4.67;100.00
10921;BME280;5513;50.580;8.818;2023-01-31T01:25:05;99778.66;;;4.50;100.00
10921;BME280;5513;50.580;8.818;2023-01-31T01:27:33;99790.88;;;4.51;100.00
10921;BME280;5513;50.580;8.818;2023-01-31T01:30:03;99792.84;;;4.45;100.00
10921;BME280;5513;50.580;8.818;2023-01-31T01:32:31;99793.28;;;4.59;100.00
10921;BME280;5513;50.580;8.818;2023-01-31T01:35:01;99787.19;;;4.58;100.00
10921;BME280;5513;50.580;8.818;2023-01-31T01:37:29;99789.00;;;4.56;100.00
10921;BME280;5513;50.580;8.818;2023-01-31T01:39:59;99806.56;;;4.53;100.00
10921;BME280;5513;50.580;8.818;2023-01-31T01:42:32;99798.75;;;4.51;100.00
10921;BME280;5513;50.580;8.818;2023-01-31T01:45:03;99807.53;;;4.50;100.00
10921;BME280;5513;50.580;8.818;2023-01-31T01:47:39;99813.78;;;4.46;100.00
10921;BME280;5513;50.580;8.818;2023-01-31T01:50:16;99805.09;;;4.43;100.00
10921;BME280;5513;50.580;8.818;2023-01-31T01:52:48;99806.41;;;4.28;100.00
10921;BME280;5513;50.580;8.818;2023-01-31T01:55:22;99805.16;;;4.41;100.00
10921;BME280;5513;50.580;8.818;2023-01-31T01:57:57;99817.41;;;4.41;100.00
10921;BME280;5513;50.580;8.818;2023-01-31T02:00:28;99811.34;;;4.39;100.00
10921;BME280;5513;50.580;8.818;2023-01-31T02:02:59;99803.53;;;4.37;100.00
10921;BME280;5513;50.580;8.818;2023-01-31T02:05:30;99810.81;;;4.27;100.00
10921;BME280;5513;50.580;8.818;2023-01-31T02:08:00;99805.22;;;4.09;100.00
10921;BME280;5513;50.580;8.818;2023-01-31T02:10:33;99812.22;;;4.08;100.00
10921;BME280;5513;50.580;8.818;2023-01-31T02:13:04;99793.13;;;4.03;100.00
10921;BME280;5513;50.580;8.818;2023-01-31T02:15:33;99794.41;;;3.88;100.00
10921;BME280;5513;50.580;8.818;2023-01-31T02:18:03;99798.53;;;3.97;100.00
10921;BME280;5513;50.580;8.818;2023-01-31T02:21:02;99805.78;;;3.87;100.00
10921;BME280;5513;50.580;8.818;2023-01-31T02:24:01;99808.31;;;3.90;100.00
10921;BME280;5513;50.580;8.818;2023-01-31T02:32:55;99815.50;;;3.82;100.00
10921;BME280;5513;50.580;8.818;2023-01-31T02:35:41;99818.09;;;3.84;100.00
10921;BME280;5513;50.580;8.818;2023-01-31T02:38:27;99819.94;;;3.80;100.00
10921;BME280;5513;50.580;8.818;2023-01-31T02:41:04;99823.75;;;3.68;100.00
10921;BME280;5513;50.580;8.818;2023-01-31T02:43:44;99829.84;;;3.69;100.00
10921;BME280;5513;50.580;8.818;2023-01-31T02:46:41;99830.53;;;3.76;100.00
10921;BME280;5513;50.580;8.818;2023-01-31T02:49:16;99837.44;;;3.80;100.00
10921;BME280;5513;50.580;8.818;2023-01-31T02:52:09;99836.13;;;3.62;100.00
10921;BME280;5513;50.580;8.818;2023-01-31T02:54:50;99853.75;;;3.55;100.00
10921;BME280;5513;50.580;8.818;2023-01-31T02:57:37;99855.34;;;3.61;100.00
10921;BME280;5513;50.580;8.818;2023-01-31T03:00:08;99863.41;;;3.53;100.00
10921;BME280;5513;50.580;8.818;2023-01-31T03:02:38;99863.09;;;3.65;100.00
10921;BME280;5513;50.580;8.818;2023-01-31T03:05:11;99869.41;;;3.57;100.00
10921;BME280;5513;50.580;8.818;2023-01-31T03:07:41;99873.75;;;3.59;100.00
10921;BME280;5513;50.580;8.818;2023-01-31T03:10:35;99883.06;;;3.71;100.00
10921;BME280;5513;50.580;8.818;2023-01-31T03:13:17;99888.34;;;3.69;100.00
10921;BME280;5513;50.580;8.818;2023-01-31T03:15:58;99872.63;;;3.69;100.00
10921;BME280;5513;50.580;8.818;2023-01-31T03:18:53;99873.97;;;3.84;100.00
10921;BME280;5513;50.580;8.818;2023-01-31T03:21:31;99873.28;;;3.78;100.00
10921;BME280;5513;50.580;8.818;2023-01-31T03:24:04;99878.44;;;3.81;100.00
10921;BME280;5513;50.580;8.818;2023-01-31T03:26:34;99870.91;;;3.68;100.00
10921;BME280;5513;50.580;8.818;2023-01-31T03:29:05;99881.06;;;3.81;100.00
10921;BME280;5513;50.580;8.818;2023-01-31T03:31:37;99881.78;;;3.87;100.00
10921;BME280;5513;50.580;8.818;2023-01-31T03:34:08;99878.72;;;3.70;100.00
10921;BME280;5513;50.580;8.818;2023-01-31T03:36:46;99887.28;;;3.75;100.00
10921;BME280;5513;50.580;8.818;2023-01-31T03:39:23;99877.66;;;3.77;100.00
10921;BME280;5513;50.580;8.818;2023-01-31T03:41:59;99881.09;;;3.79;100.00
10921;BME280;5513;50.580;8.818;2023-01-31T03:44:39;99891.25;;;3.56;100.00
10921;BME280;5513;50.580;8.818;2023-01-31T03:47:13;99892.06;;;3.59;100.00
10921;BME280;5513;50.580;8.818;2023-01-31T03:49:45;99888.34;;;3.69;100.00
10921;BME280;5513;50.580;8.818;2023-01-31T03:52:19;99889.41;;;3.61;100.00
10921;BME280;5513;50.580;8.818;2023-01-31T03:54:54;99892.13;;;3.56;100.00
10921;BME280;5513;50.580;8.818;2023-01-31T03:57:28;99885.00;;;3.63;100.00
10921;BME280;5513;50.580;8.818;2023-01-31T03:59:59;99889.44;;;3.59;100.00
10921;BME280;5513;50.580;8.818;2023-01-31T04:02:33;99881.34;;;3.70;100.00
10921;BME280;5513;50.580;8.818;2023-01-31T04:05:05;99883.28;;;3.62;100.00
10921;BME280;5513;50.580;8.818;2023-01-31T04:07:36;99876.63;;;3.47;100.00
10921;BME280;5513;50.580;8.818;2023-01-31T04:10:08;99880.31;;;3.40;100.00
10921;BME280;5513;50.580;8.818;2023-01-31T04:12:40;99883.00;;;3.35;100.00
10921;BME280;5513;50.580;8.818;2023-01-31T04:15:09;99878.84;;;3.28;100.00
10921;BME280;5513;50.580;8.818;2023-01-31T04:17:38;99876.09;;;3.33;100.00
10921;BME280;5513;50.580;8.818;2023-01-31T04:20:07;99884.94;;;3.27;100.00
10921;BME280;5513;50.580;8.818;2023-01-31T04:22:41;99880.75;;;3.20;100.00
10921;BME280;5513;50.580;8.818;2023-01-31T04:25:09;99873.25;;;3.05;100.00
10921;BME280;5513;50.580;8.818;2023-01-31T04:27:38;99874.34;;;2.95;100.00
10921;BME280;5513;50.580;8.818;2023-01-31T04:30:08;99879.72;;;2.87;100.00
10921;BME280;5513;50.580;8.818;2023-01-31T04:32:37;99879.06;;;2.77;100.00
10921;BME280;5513;50.580;8.818;2023-01-31T04:35:06;99868.41;;;2.86;100.00
10921;BME280;5513;50.580;8.818;2023-01-31T04:37:35;99870.25;;;2.81;100.00
10921;BME280;5513;50.580;8.818;2023-01-31T04:40:06;99875.38;;;2.86;100.00
10921;BME280;5513;50.580;8.818;2023-01-31T04:42:35;99872.94;;;2.78;100.00
10921;BME280;5513;50.580;8.818;2023-01-31T04:45:04;99866.13;;;2.71;100.00
10921;BME280;5513;50.580;8.818;2023-01-31T04:47:34;99873.84;;;2.76;100.00
10921;BME280;5513;50.580;8.818;2023-01-31T04:50:03;99872.28;;;2.67;100.00
10921;BME280;5513;50.580;8.818;2023-01-31T04:52:32;99874.16;;;2.62;100.00
10921;BME280;5513;50.580;8.818;2023-01-31T04:55:00;99865.56;;;2.55;100.00
10921;BME280;5513;50.580;8.818;2023-01-31T04:57:30;99866.47;;;2.54;100.00
10921;BME280;5513;50.580;8.818;2023-01-31T04:59:58;99878.78;;;2.48;100.00
10921;BME280;5513;50.580;8.818;2023-01-31T05:02:29;99865.63;;;2.51;100.00
10921;BME280;5513;50.580;8.818;2023-01-31T05:04:57;99869.19;;;2.48;100.00
10921;BME280;5513;50.580;8.818;2023-01-31T05:07:26;99871.78;;;2.48;100.00
10921;BME280;5513;50.580;8.818;2023-01-31T05:09:54;99865.97;;;2.36;100.00
10921;BME280;5513;50.580;8.818;2023-01-31T05:12:23;99865.97;;;2.36;100.00
10921;BME280;5513;50.580;8.818;2023-01-31T05:14:55;99863.22;;;2.40;100.00
10921;BME280;5513;50.580;8.818;2023-01-31T05:17:23;99866.81;;;2.36;100.00
10921;BME280;5513;50.580;8.818;2023-01-31T05:19:55;99868.47;;;2.40;100.00
10921;BME280;5513;50.580;8.818;2023-01-31T05:22:24;99859.13;;;2.28;100.00
10921;BME280;5513;50.580;8.818;2023-01-31T05:24:53;99866.03;;;2.31;100.00
10921;BME280;5513;50.580;8.818;2023-01-31T05:27:24;99857.34;;;2.29;100.00
10921;BME280;5513;50.580;8.818;2023-01-31T05:29:52;99862.66;;;2.26;100.00
10921;BME280;5513;50.580;8.818;2023-01-31T05:32:22;99867.75;;;2.34;100.00
10921;BME280;5513;50.580;8.818;2023-01-31T05:34:51;99863.47;;;2.28;100.00
10921;BME280;5513;50.580;8.818;2023-01-31T05:37:21;99860.81;;;2.31;100.00
10921;BME280;5513;50.580;8.818;2023-01-31T05:39:49;99856.44;;;2.32;100.00
10921;BME280;5513;50.580;8.818;2023-01-31T05:42:20;99861.66;;;2.32;100.00
10921;BME280;5513;50.580;8.818;2023-01-31T05:44:48;99858.19;;;2.33;100.00
10921;BME280;5513;50.580;8.818;2023-01-31T05:47:17;99869.47;;;2.35;100.00
10921;BME280;5513;50.580;8.818;2023-01-31T05:49:47;99868.81;;;2.23;100.00
10921;BME280;5513;50.580;8.818;2023-01-31T05:52:17;99869.75;;;2.19;100.00
10921;BME280;5513;50.580;8.818;2023-01-31T05:54:45;99855.75;;;2.23;100.00
10921;BME280;5513;50.580;8.818;2023-01-31T05:57:14;99857.72;;;2.09;100.00
10921;BME280;5513;50.580;8.818;2023-01-31T05:59:43;99851.53;;;2.15;100.00
10921;BME280;5513;50.580;8.818;2023-01-31T06:02:12;99846.19;;;2.22;100.00
10921;BME280;5513;50.580;8.818;2023-01-31T06:04:40;99847.84;;;2.26;100.00
10921;BME280;5513;50.580;8.818;2023-01-31T06:07:10;99847.38;;;2.49;100.00
10921;BME280;5513;50.580;8.818;2023-01-31T06:09:38;99844.94;;;2.42;100.00
10921;BME280;5513;50.580;8.818;2023-01-31T06:12:11;99848.59;;;2.32;100.00
10921;BME280;5513;50.580;8.818;2023-01-31T06:14:40;99846.75;;;2.37;100.00
10921;BME280;5513;50.580;8.818;2023-01-31T06:17:10;99850.06;;;2.46;100.00
10921;BME280;5513;50.580;8.818;2023-01-31T06:19:38;99860.81;;;2.31;100.00
10921;BME280;5513;50.580;8.818;2023-01-31T06:22:07;99852.00;;;2.37;100.00
10921;BME280;5513;50.580;8.818;2023-01-31T06:24:37;99849.41;;;2.35;100.00
10921;BME280;5513;50.580;8.818;2023-01-31T06:27:05;99852.72;;;1.98;100.00
10921;BME280;5513;50.580;8.818;2023-01-31T06:29:33;99858.88;;;1.93;100.00
10921;BME280;5513;50.580;8.818;2023-01-31T06:32:05;99851.09;;;1.91;100.00
10921;BME280;5513;50.580;8.818;2023-01-31T06:34:35;99851.69;;;2.07;100.00
10921;BME280;5513;50.580;8.818;2023-01-31T06:37:16;99851.59;;;2.13;100.00
10921;BME280;5513;50.580;8.818;2023-01-31T06:39:46;99844.19;;;2.35;100.00
10921;BME280;5513;50.580;8.818;2023-01-31T06:42:15;99846.00;;;2.30;100.00
10921;BME280;5513;50.580;8.818;2023-01-31T06:44:43;99853.53;;;2.47;100.00
10921;BME280;5513;50.580;8.818;2023-01-31T06:47:11;99844.97;;;2.39;100.00
10921;BME280;5513;50.580;8.818;2023-01-31T06:49:40;99865.03;;;2.38;100.00
10921;BME280;5513;50.580;8.818;2023-01-31T06:52:09;99865.03;;;2.38;100.00
10921;BME280;5513;50.580;8.818;2023-01-31T06:54:40;99854.47;;;2.44;100.00
10921;BME280;5513;50.580;8.818;2023-01-31T06:57:10;99870.06;;;2.47;100.00
10921;BME280;5513;50.580;8.818;2023-01-31T06:59:39;99861.94;;;2.63;100.00
10921;BME280;5513;50.580;8.818;2023-01-31T07:02:08;99863.88;;;2.53;100.00
10921;BME280;5513;50.580;8.818;2023-01-31T07:04:36;99858.72;;;2.48;100.00
10921;BME280;5513;50.580;8.818;2023-01-31T07:07:05;99851.69;;;2.50;100.00
10921;BME280;5513;50.580;8.818;2023-01-31T07:09:35;99851.63;;;2.55;100.00
10921;BME280;5513;50.580;8.818;2023-01-31T07:12:05;99849.69;;;2.65;100.00
10921;BME280;5513;50.580;8.818;2023-01-31T07:14:38;99860.22;;;2.62;100.00
10921;BME280;5513;50.580;8.818;2023-01-31T07:17:06;99852.38;;;2.62;100.00
10921;BME280;5513;50.580;8.818;2023-01-31T07:19:34;99857.38;;;2.72;100.00
10921;BME280;5513;50.580;8.818;2023-01-31T07:22:03;99844.34;;;2.71;100.00
10921;BME280;5513;50.580;8.818;2023-01-31T07:24:33;99846.81;;;2.77;100.00
10921;BME280;5513;50.580;8.818;2023-01-31T07:27:01;99851.25;;;2.73;100.00
10921;BME280;5513;50.580;8.818;2023-01-31T07:29:30;99846.09;;;2.70;100.00
10921;BME280;5513;50.580;8.818;2023-01-31T07:32:05;99847.91;;;2.67;100.00
10921;BME280;5513;50.580;8.818;2023-01-31T07:34:34;99846.06;;;2.72;100.00
10921;BME280;5513;50.580;8.818;2023-01-31T07:37:03;99845.00;;;2.79;100.00
10921;BME280;5513;50.580;8.818;2023-01-31T07:39:31;99843.56;;;2.66;100.00
10921;BME280;5513;50.580;8.818;2023-01-31T07:42:00;99839.22;;;2.65;100.00
10921;BME280;5513;50.580;8.818;2023-01-31T07:44:29;99849.31;;;2.83;100.00
10921;BME280;5513;50.580;8.818;2023-01-31T07:46:57;99841.59;;;2.75;100.00
10921;BME280;5513;50.580;8.818;2023-01-31T07:49:27;99838.88;;;2.81;100.00
10921;BME280;5513;50.580;8.818;2023-01-31T07:51:56;99844.16;;;2.80;100.00
10921;BME280;5513;50.580;8.818;2023-01-31T07:54:25;99842.31;;;2.83;100.00
10921;BME280;5513;50.580;8.818;2023-01-31T07:56:53;99844.88;;;2.85;100.00
10921;BME280;5513;50.580;8.818;2023-01-31T07:59:21;99842.53;;;2.73;100.00
10921;BME280;5513;50.580;8.818;2023-01-31T08:01:50;99840.78;;;2.73;100.00
10921;BME280;5513;50.580;8.818;2023-01-31T08:04:37;99846.75;;;2.80;100.00
10921;BME280;5513;50.580;8.818;2023-01-31T08:07:06;99840.63;;;2.81;100.00
10921;BME280;5513;50.580;8.818;2023-01-31T08:09:35;99837.88;;;2.87;100.00
10921;BME280;5513;50.580;8.818;2023-01-31T08:12:04;99831.41;;;3.03;100.00
10921;BME280;5513;50.580;8.818;2023-01-31T08:14:33;99828.91;;;2.97;100.00
10921;BME280;5513;50.580;8.818;2023-01-31T08:17:02;99829.78;;;2.98;100.00
10921;BME280;5513;50.580;8.818;2023-01-31T08:19:31;99836.75;;;2.97;100.00
10921;BME280;5513;50.580;8.818;2023-01-31T08:22:02;99837.63;;;2.98;100.00
10921;BME280;5513;50.580;8.818;2023-01-31T08:24:35;99840.97;;;3.04;100.00
10921;BME280;5513;50.580;8.818;2023-01-31T08:27:04;99842.84;;;2.98;100.00
10921;BME280;5513;50.580;8.818;2023-01-31T08:29:32;99841.97;;;2.99;100.00
10921;BME280;5513;50.580;8.818;2023-01-31T08:32:06;99842.72;;;3.04;100.00
10921;BME280;5513;50.580;8.818;2023-01-31T08:34:35;99841.72;;;3.11;100.00
10921;BME280;5513;50.580;8.818;2023-01-31T08:37:05;99835.41;;;3.18;100.00
10921;BME280;5513;50.580;8.818;2023-01-31T08:39:33;99836.22;;;3.22;100.00
10921;BME280;5513;50.580;8.818;2023-01-31T08:42:01;99829.47;;;3.11;100.00
10921;BME280;5513;50.580;8.818;2023-01-31T08:44:30;99825.09;;;3.12;100.00
10921;BME280;5513;50.580;8.818;2023-01-31T08:46:58;99828.25;;;3.26;100.00
10921;BME280;5513;50.580;8.818;2023-01-31T08:49:28;99822.06;;;3.30;100.00
10921;BME280;5513;50.580;8.818;2023-01-31T08:51:57;99822.06;;;3.30;100.00
10921;BME280;5513;50.580;8.818;2023-01-31T08:54:26;99830.50;;;3.41;100.00
10921;BME280;5513;50.580;8.818;2023-01-31T08:56:55;99841.16;;;3.34;100.00
10921;BME280;5513;50.580;8.818;2023-01-31T08:59:25;99840.16;;;3.39;100.00
10921;BME280;5513;50.580;8.818;2023-01-31T09:01:55;99841.94;;;3.39;100.00
10921;BME280;5513;50.580;8.818;2023-01-31T09:04:24;99851.38;;;3.44;100.00
10921;BME280;5513;50.580;8.818;2023-01-31T09:06:52;99838.19;;;3.49;100.00
10921;BME280;5513;50.580;8.818;2023-01-31T09:09:21;99850.22;;;3.56;100.00
10921;BME280;5513;50.580;8.818;2023-01-31T09:11:53;99841.84;;;3.76;100.00
10921;BME280;5513;50.580;8.818;2023-01-31T09:14:22;99833.47;;;3.63;100.00
10921;BME280;5513;50.580;8.818;2023-01-31T09:16:50;99820.59;;;3.88;100.00
10921;BME280;5513;50.580;8.818;2023-01-31T09:19:19;99811.69;;;3.94;100.00
10921;BME280;5513;50.580;8.818;2023-01-31T09:21:48;99814.41;;;3.91;100.00
10921;BME280;5513;50.580;8.818;2023-01-31T09:24:16;99809.78;;;4.00;100.00
10921;BME280;5513;50.580;8.818;2023-01-31T09:26:46;99819.47;;;3.98;100.00
10921;BME280;5513;50.580;8.818;2023-01-31T09:29:16;99814.91;;;4.05;100.00
10921;BME280;5513;50.580;8.818;2023-01-31T09:31:44;99809.50;;;4.11;100.00
10921;BME280;5513;50.580;8.818;2023-01-31T09:34:13;99799.41;;;3.97;100.00
10921;BME280;5513;50.580;8.818;2023-01-31T09:36:43;99785.47;;;3.95;100.00
10921;BME280;5513;50.580;8.818;2023-01-31T09:39:11;99788.97;;;3.96;100.00
10921;BME280;5513;50.580;8.818;2023-01-31T09:41:43;99787.56;;;4.15;100.00
10921;BME280;5513;50.580;8.818;2023-01-31T09:44:16;99793.13;;;4.03;100.00
10921;BME280;5513;50.580;8.818;2023-01-31T09:46:51;99782.38;;;4.12;100.00
10921;BME280;5513;50.580;8.818;2023-01-31T09:49:23;99792.88;;;4.12;100.00
10921;BME280;5513;50.580;8.818;2023-01-31T09:51:57;99788.44;;;4.14;100.00
10921;BME280;5513;50.580;8.818;2023-01-31T09:54:34;99778.78;;;4.16;100.00
10921;BME280;5513;50.580;8.818;2023-01-31T09:57:12;99778.78;;;4.16;100.00
10921;BME280;5513;50.580;8.818;2023-01-31T09:59:47;99784.94;;;4.14;100.00
10921;BME280;5513;50.580;8.818;2023-01-31T10:02:30;99780.56;;;4.14;100.00
10921;BME280;5513;50.580;8.818;2023-01-31T10:05:09;99781.69;;;4.37;100.00
10921;BME280;5513;50.580;8.818;2023-01-31T10:07:49;99770.34;;;4.36;100.00
10921;BME280;5513;50.580;8.818;2023-01-31T10:10:28;99778.53;;;4.25;100.00
10921;BME280;5513;50.580;8.818;2023-01-31T10:13:04;99770.34;;;4.36;100.00
10921;BME280;5513;50.580;8.818;2023-01-31T10:15:37;99755.66;;;4.30;100.00
10921;BME280;5513;50.580;8.818;2023-01-31T10:18:12;99766.81;;;4.37;100.00
10921;BME280;5513;50.580;8.818;2023-01-31T10:20:48;99765.81;;;4.41;100.00
10921;BME280;5513;50.580;8.818;2023-01-31T10:23:22;99758.41;;;4.55;100.00
10921;BME280;5513;50.580;8.818;2023-01-31T10:25:56;99754.09;;;4.54;100.00
10921;BME280;5513;50.580;8.818;2023-01-31T10:28:33;99765.78;;;4.43;100.00
10921;BME280;5513;50.580;8.818;2023-01-31T10:31:07;99757.69;;;4.50;100.00
10921;BME280;5513;50.580;8.818;2023-01-31T10:33:46;99750.56;;;4.55;100.00
10921;BME280;5513;50.580;8.818;2023-01-31T10:36:25;99742.81;;;4.51;100.00
10921;BME280;5513;50.580;8.818;2023-01-31T10:38:59;99745.56;;;4.46;100.00
10921;BME280;5513;50.580;8.818;2023-01-31T10:41:36;99732.00;;;4.32;100.00
10921;BME280;5513;50.580;8.818;2023-01-31T10:44:14;99734.28;;;4.43;100.00
10921;BME280;5513;50.580;8.818;2023-01-31T10:46:46;99745.75;;;4.40;100.00
10921;BME280;5513;50.580;8.818;2023-01-31T10:49:17;99733.66;;;4.36;100.00
10921;BME280;5513;50.580;8.818;2023-01-31T10:52:03;99737.88;;;4.40;100.00
10921;BME280;5513;50.580;8.818;2023-01-31T10:54:41;99737.06;;;4.38;100.00
10921;BME280;5513;50.580;8.818;2023-01-31T10:57:13;99729.31;;;4.34;100.00
10921;BME280;5513;50.580;8.818;2023-01-31T10:59:44;99744.34;;;4.28;100.00
10921;BME280;5513;50.580;8.818;2023-01-31T11:02:18;99727.66;;;4.31;100.00
10921;BME280;5513;50.580;8.818;2023-01-31T11:04:49;99718.72;;;4.38;100.00
10921;BME280;5513;50.580;8.818;2023-01-31T11:07:20;99714.44;;;4.34;100.00
10921;BME280;5513;50.580;8.818;2023-01-31T11:09:50;99707.03;;;4.48;100.00
10921;BME280;5513;50.580;8.818;2023-01-31T11:12:21;99724.06;;;4.35;100.00
10921;BME280;5513;50.580;8.818;2023-01-31T11:15:05;99701.03;;;4.45;100.00
10921;BME280;5513;50.580;8.818;2023-01-31T11:17:36;99690.69;;;4.40;100.00
10921;BME280;5513;50.580;8.818;2023-01-31T11:20:18;99686.34;;;4.39;100.00
10921;BME280;5513;50.580;8.818;2023-01-31T11:22:49;99680.34;;;4.36;100.00
10921;BME280;5513;50.580;8.818;2023-01-31T11:25:19;99686.88;;;4.50;100.00
10921;BME280;5513;50.580;8.818;2023-01-31T11:27:51;99687.94;;;4.45;100.00
10921;BME280;5513;50.580;8.818;2023-01-31T11:30:24;99672.03;;;4.49;100.00
10921;BME280;5513;50.580;8.818;2023-01-31T11:32:54;99659.31;;;4.37;100.00
10921;BME280;5513;50.580;8.818;2023-01-31T11:35:27;99658.28;;;4.41;100.00
10921;BME280;5513;50.580;8.818;2023-01-31T11:37:57;99655.59;;;4.44;100.00
10921;BME280;5513;50.580;8.818;2023-01-31T11:40:29;99662.50;;;4.47;100.00
10921;BME280;5513;50.580;8.818;2023-01-31T11:42:58;99644.31;;;4.41;100.00
10921;BME280;5513;50.580;8.818;2023-01-31T11:45:29;99636.66;;;4.35;100.00
10921;BME280;5513;50.580;8.818;2023-01-31T11:48:04;99633.72;;;4.44;100.00
10921;BME280;5513;50.580;8.818;2023-01-31T11:50:37;99612.16;;;4.36;100.00
10921;BME280;5513;50.580;8.818;2023-01-31T11:53:15;99605.00;;;4.41;100.00
10921;BME280;5513;50.580;8.818;2023-01-31T11:55:45;99604.94;;;4.42;100.00
10921;BME280;5513;50.580;8.818;2023-01-31T11:58:17;99623.28;;;4.42;100.00
10921;BME280;5513;50.580;8.818;2023-01-31T12:00:52;99625.50;;;4.56;100.00
10921;BME280;5513;50.580;8.818;2023-01-31T12:03:21;99615.13;;;4.51;100.00
10921;BME280;5513;50.580;8.818;2023-01-31T12:05:59;99614.84;;;4.60;100.00
10921;BME280;5513;50.580;8.818;2023-01-31T12:08:30;99602.59;;;4.61;100.00
10921;BME280;5513;50.580;8.818;2023-01-31T12:11:03;99606.41;;;4.51;100.00
10921;BME280;5513;50.580;8.818;2023-01-31T12:13:44;99597.84;;;4.46;100.00
10921;BME280;5513;50.580;8.818;2023-01-31T12:16:13;99592.59;;;4.46;100.00
10921;BME280;5513;50.580;8.818;2023-01-31T12:19:04;99578.72;;;4.42;100.00
10921;BME280;5513;50.580;8.818;2023-01-31T12:21:51;99586.28;;;4.51;100.00
10921;BME280;5513;50.580;8.818;2023-01-31T12:24:35;99569.69;;;4.51;100.00
10921;BME280;5513;50.580;8.818;2023-01-31T12:27:16;99574.81;;;4.55;100.00
10921;BME280;5513;50.580;8.818;2023-01-31T12:29:59;99573.13;;;4.53;100.00
10921;BME280;5513;50.580;8.818;2023-01-31T12:35:41;99553.31;;;4.44;100.00
10921;BME280;5513;50.580;8.818;2023-01-31T12:38:27;99542.34;;;4.58;100.00
10921;BME280;5513;50.580;8.818;2023-01-31T12:41:13;99531.56;;;4.41;100.00
10921;BME280;5513;50.580;8.818;2023-01-31T12:47:04;99531.31;;;4.48;100.00
10921;BME280;5513;50.580;8.818;2023-01-31T12:49:56;99526.81;;;4.52;100.00
10921;BME280;5513;50.580;8.818;2023-01-31T12:52:33;99540.22;;;4.43;100.00
10921;BME280;5513;50.580;8.818;2023-01-31T12:55:17;99524.06;;;4.56;100.00
10921;BME280;5513;50.580;8.818;2023-01-31T12:57:55;99523.03;;;4.60;100.00
10921;BME280;5513;50.580;8.818;2023-01-31T13:00:37;99516.88;;;4.62;100.00
10921;BME280;5513;50.580;8.818;2023-01-31T13:03:30;99512.97;;;4.48;100.00
10921;BME280;5513;50.580;8.818;2023-01-31T13:06:07;99527.03;;;4.46;100.00
10921;BME280;5513;50.580;8.818;2023-01-31T13:08:45;99518.00;;;4.54;100.00
10921;BME280;5513;50.580;8.818;2023-01-31T13:11:38;99525.50;;;4.65;100.00
10921;BME280;5513;50.580;8.818;2023-01-31T13:14:13;99515.97;;;4.63;100.00
10921;BME280;5513;50.580;8.818;2023-01-31T13:16:45;99534.97;;;4.69;100.00
10921;BME280;5513;50.580;8.818;2023-01-31T13:19:21;99528.03;;;4.68;100.00
10921;BME280;5513;50.580;8.818;2023-01-31T13:22:00;99507.19;;;4.88;100.00
10921;BME280;5513;50.580;8.818;2023-01-31T13:24:43;99511.53;;;4.89;100.00
10921;BME280;5513;50.580;8.818;2023-01-31T13:27:29;99505.28;;;4.94;100.00
10921;BME280;5513;50.580;8.818;2023-01-31T13:30:01;99514.81;;;4.96;100.00
10921;BME280;5513;50.580;8.818;2023-01-31T13:32:34;99522.03;;;4.89;100.00
10921;BME280;5513;50.580;8.818;2023-01-31T13:35:14;99511.84;;;4.80;100.00
10921;BME280;5513;50.580;8.818;2023-01-31T13:37:47;99505.41;;;4.89;100.00
10921;BME280;5513;50.580;8.818;2023-01-31T13:40:18;99498.53;;;4.86;100.00
10921;BME280;5513;50.580;8.818;2023-01-31T13:42:54;99498.41;;;4.89;100.00
10921;BME280;5513;50.580;8.818;2023-01-31T13:45:26;99494.31;;;5.06;100.00
10921;BME280;5513;50.580;8.818;2023-01-31T13:47:59;99488.28;;;5.04;100.00
10921;BME280;5513;50.580;8.818;2023-01-31T13:50:33;99488.75;;;4.90;100.00